sensor_id;sensor_type;location;lat;lon;timestamp;pressure;altitude;pressure_sealevel;temperature;humidity
6389;BME280;3227;42.654;23.360;2023-02-02T00:01:15;94482.84;;;6.82;49.99
6389;BME280;3227;42.654;23.360;2023-02-02T00:03:43;94454.66;;;6.67;49.28
6389;BME280;3227;42.654;23.360;2023-02-02T00:06:10;94446.06;;;6.62;49.38
6389;BME280;3227;42.654;23.360;2023-02-02T00:08:37;94483.84;;;6.92;49.38
6389;BME280;3227;42.654;23.360;2023-02-02T00:11:04;94482.91;;;6.86;49.82
6389;BME280;3227;42.654;23.360;2023-02-02T00:13:31;94479.59;;;6.94;48.92
6389;BME280;3227;42.654;23.360;2023-02-02T00:18:42;94477.03;;;6.94;49.20
6389;BME280;3227;42.654;23.360;2023-02-02T00:21:09;94477.13;;;7.01;49.75
6389;BME280;3227;42.654;23.360;2023-02-02T00:23:36;94477.97;;;6.99;49.89
6389;BME280;3227;42.654;23.360;2023-02-02T00:26:02;94481.34;;;6.98;48.74
6389;BME280;3227;42.654;23.360;2023-02-02T00:28:29;94488.13;;;6.96;47.94
6389;BME280;3227;42.654;23.360;2023-02-02T00:30:56;94473.34;;;6.70;48.42
6389;BME280;3227;42.654;23.360;2023-02-02T00:33:23;94485.06;;;6.58;49.33
6389;BME280;3227;42.654;23.360;2023-02-02T00:35:52;94490.06;;;6.50;49.84
6389;BME280;3227;42.654;23.360;2023-02-02T00:38:19;94491.56;;;6.39;50.07
6389;BME280;3227;42.654;23.360;2023-02-02T00:40:46;94494.78;;;6.26;50.07
6389;BME280;3227;42.654;23.360;2023-02-02T00:43:13;94508.38;;;6.29;50.79
6389;BME280;3227;42.654;23.360;2023-02-02T00:45:40;94500.41;;;6.08;50.37
6389;BME280;3227;42.654;23.360;2023-02-02T00:48:05;94497.66;;;5.96;51.27
6389;BME280;3227;42.654;23.360;2023-02-02T00:50:32;94507.03;;;5.98;51.98
6389;BME280;3227;42.654;23.360;2023-02-02T00:53:01;94499.53;;;6.06;51.63
6389;BME280;3227;42.654;23.360;2023-02-02T00:55:28;94466.81;;;5.78;52.31
6389;BME280;3227;42.654;23.360;2023-02-02T00:57:54;94500.47;;;6.13;52.76
6389;BME280;3227;42.654;23.360;2023-02-02T01:00:23;94442.47;;;5.90;53.62
6389;BME280;3227;42.654;23.360;2023-02-02T01:02:51;94437.50;;;5.96;53.84
6389;BME280;3227;42.654;23.360;2023-02-02T01:05:19;94440.28;;;6.13;53.74
6389;BME280;3227;42.654;23.360;2023-02-02T01:07:47;94485.81;;;6.51;53.14
6389;BME280;3227;42.654;23.360;2023-02-02T01:10:16;94484.22;;;6.57;53.65
6389;BME280;3227;42.654;23.360;2023-02-02T01:12:44;94480.84;;;6.58;53.56
6389;BME280;3227;42.654;23.360;2023-02-02T01:15:11;94467.28;;;6.62;54.23
6389;BME280;3227;42.654;23.360;2023-02-02T01:17:38;94475.81;;;6.64;54.51
6389;BME280;3227;42.654;23.360;2023-02-02T01:20:07;94473.91;;;6.49;54.98
6389;BME280;3227;42.654;23.360;2023-02-02T01:22:34;94451.59;;;6.32;55.48
6389;BME280;3227;42.654;23.360;2023-02-02T01:25:03;94453.09;;;6.18;56.15
6389;BME280;3227;42.654;23.360;2023-02-02T01:27:32;94467.44;;;6.14;56.33
6389;BME280;3227;42.654;23.360;2023-02-02T01:29:58;94476.69;;;6.10;57.16
6389;BME280;3227;42.654;23.360;2023-02-02T01:32:25;94461.09;;;5.89;57.42
6389;BME280;3227;42.654;23.360;2023-02-02T01:34:52;94450.75;;;5.80;58.10
6389;BME280;3227;42.654;23.360;2023-02-02T01:37:19;94457.47;;;5.75;58.00
6389;BME280;3227;42.654;23.360;2023-02-02T01:39:46;94455.84;;;5.80;57.84
6389;BME280;3227;42.654;23.360;2023-02-02T01:42:14;94455.03;;;5.83;58.57
6389;BME280;3227;42.654;23.360;2023-02-02T01:45:04;94446.78;;;5.94;57.92
6389;BME280;3227;42.654;23.360;2023-02-02T01:47:35;94446.94;;;6.05;57.73
6389;BME280;3227;42.654;23.360;2023-02-02T01:50:04;94449.34;;;5.96;56.89
6389;BME280;3227;42.654;23.360;2023-02-02T01:52:32;94440.19;;;6.05;56.64
6389;BME280;3227;42.654;23.360;2023-02-02T01:55:06;94448.28;;;5.83;57.06
6389;BME280;3227;42.654;23.360;2023-02-02T01:57:37;94435.16;;;5.59;58.57
6389;BME280;3227;42.654;23.360;2023-02-02T02:00:09;94429.69;;;5.38;59.17
6389;BME280;3227;42.654;23.360;2023-02-02T02:02:37;94430.09;;;5.14;60.14
6389;BME280;3227;42.654;23.360;2023-02-02T02:05:07;94428.94;;;4.98;60.99
6389;BME280;3227;42.654;23.360;2023-02-02T02:07:35;94428.88;;;4.95;61.48
6389;BME280;3227;42.654;23.360;2023-02-02T02:10:03;94429.69;;;4.92;61.93
6389;BME280;3227;42.654;23.360;2023-02-02T02:12:29;94429.75;;;4.95;61.61
6389;BME280;3227;42.654;23.360;2023-02-02T02:14:56;94434.81;;;4.95;61.54
6389;BME280;3227;42.654;23.360;2023-02-02T02:17:53;94431.38;;;4.92;61.53
6389;BME280;3227;42.654;23.360;2023-02-02T02:27:33;94445.84;;;4.96;61.54
6389;BME280;3227;42.654;23.360;2023-02-02T02:30:18;94449.25;;;4.98;61.79
6389;BME280;3227;42.654;23.360;2023-02-02T02:32:57;94442.75;;;5.12;61.41
6389;BME280;3227;42.654;23.360;2023-02-02T02:35:32;94443.06;;;5.29;60.86
6389;BME280;3227;42.654;23.360;2023-02-02T02:38:08;94437.06;;;5.24;60.29
6389;BME280;3227;42.654;23.360;2023-02-02T02:40:41;94437.25;;;5.33;61.19
6389;BME280;3227;42.654;23.360;2023-02-02T02:43:13;94425.63;;;5.47;60.00
6389;BME280;3227;42.654;23.360;2023-02-02T02:45:41;94435.09;;;5.56;58.99
6389;BME280;3227;42.654;23.360;2023-02-02T02:48:11;94435.44;;;5.77;57.85
6389;BME280;3227;42.654;23.360;2023-02-02T02:50:38;94440.53;;;5.77;57.55
6389;BME280;3227;42.654;23.360;2023-02-02T02:53:07;94429.56;;;5.80;57.99
6389;BME280;3227;42.654;23.360;2023-02-02T02:55:41;94420.19;;;5.77;57.55
6389;BME280;3227;42.654;23.360;2023-02-02T02:58:17;94387.69;;;5.58;57.04
6389;BME280;3227;42.654;23.360;2023-02-02T03:00:58;94415.22;;;5.83;57.04
6389;BME280;3227;42.654;23.360;2023-02-02T03:03:36;94433.16;;;5.91;56.78
6389;BME280;3227;42.654;23.360;2023-02-02T03:06:11;94429.63;;;5.83;57.54
6389;BME280;3227;42.654;23.360;2023-02-02T03:08:44;94391.72;;;5.47;57.54
6389;BME280;3227;42.654;23.360;2023-02-02T03:11:13;94428.38;;;5.59;58.18
6389;BME280;3227;42.654;23.360;2023-02-02T03:13:42;94423.81;;;5.40;58.94
6389;BME280;3227;42.654;23.360;2023-02-02T03:16:09;94432.19;;;5.34;59.65
6389;BME280;3227;42.654;23.360;2023-02-02T03:18:38;94429.34;;;5.19;58.89
6389;BME280;3227;42.654;23.360;2023-02-02T03:21:05;94426.66;;;5.10;59.80
6389;BME280;3227;42.654;23.360;2023-02-02T03:23:32;94424.13;;;5.10;59.55
6389;BME280;3227;42.654;23.360;2023-02-02T03:25:59;94428.44;;;5.16;59.97
6389;BME280;3227;42.654;23.360;2023-02-02T03:28:27;94430.88;;;5.11;59.57
6389;BME280;3227;42.654;23.360;2023-02-02T03:30:56;94429.97;;;5.06;59.82
6389;BME280;3227;42.654;23.360;2023-02-02T03:33:24;94428.03;;;4.93;60.37
6389;BME280;3227;42.654;23.360;2023-02-02T03:35:52;94429.88;;;5.03;59.70
6389;BME280;3227;42.654;23.360;2023-02-02T03:38:19;94435.94;;;5.08;59.88
6389;BME280;3227;42.654;23.360;2023-02-02T03:40:45;94410.25;;;4.93;60.00
6389;BME280;3227;42.654;23.360;2023-02-02T03:43:12;94424.41;;;4.82;60.13
6389;BME280;3227;42.654;23.360;2023-02-02T03:45:39;94438.50;;;4.68;62.10
6389;BME280;3227;42.654;23.360;2023-02-02T03:48:06;94424.66;;;4.52;62.20
6389;BME280;3227;42.654;23.360;2023-02-02T03:50:33;94435.53;;;4.48;62.33
6389;BME280;3227;42.654;23.360;2023-02-02T03:53:01;94435.47;;;4.43;63.39
6389;BME280;3227;42.654;23.360;2023-02-02T03:55:29;94431.13;;;4.39;63.99
6389;BME280;3227;42.654;23.360;2023-02-02T03:57:56;94429.97;;;4.25;64.23
6389;BME280;3227;42.654;23.360;2023-02-02T04:00:23;94441.91;;;4.29;64.61
6389;BME280;3227;42.654;23.360;2023-02-02T04:02:49;94438.19;;;4.15;65.81
6389;BME280;3227;42.654;23.360;2023-02-02T04:05:16;94441.25;;;4.00;67.07
6389;BME280;3227;42.654;23.360;2023-02-02T04:07:43;94436.47;;;3.76;67.57
6389;BME280;3227;42.654;23.360;2023-02-02T04:10:11;94439.81;;;3.75;68.98
6389;BME280;3227;42.654;23.360;2023-02-02T04:12:38;94454.06;;;3.70;68.98
6389;BME280;3227;42.654;23.360;2023-02-02T04:15:06;94444.56;;;3.63;69.67
6389;BME280;3227;42.654;23.360;2023-02-02T04:17:33;94439.47;;;3.60;69.51
6389;BME280;3227;42.654;23.360;2023-02-02T04:20:00;94451.41;;;3.66;70.18
6389;BME280;3227;42.654;23.360;2023-02-02T04:22:27;94450.41;;;3.59;70.64
6389;BME280;3227;42.654;23.360;2023-02-02T04:24:53;94445.44;;;3.62;69.56
6389;BME280;3227;42.654;23.360;2023-02-02T04:27:22;94449.78;;;3.68;70.07
6389;BME280;3227;42.654;23.360;2023-02-02T04:29:49;94447.09;;;3.62;69.63
6389;BME280;3227;42.654;23.360;2023-02-02T04:32:16;94454.53;;;3.56;69.45
6389;BME280;3227;42.654;23.360;2023-02-02T04:34:43;94452.94;;;3.59;69.59
6389;BME280;3227;42.654;23.360;2023-02-02T04:37:10;94452.19;;;3.63;69.25
6389;BME280;3227;42.654;23.360;2023-02-02T04:39:37;94437.88;;;3.65;69.97
6389;BME280;3227;42.654;23.360;2023-02-02T04:42:04;94454.97;;;3.74;68.92
6389;BME280;3227;42.654;23.360;2023-02-02T04:44:32;94455.84;;;3.74;69.62
6389;BME280;3227;42.654;23.360;2023-02-02T04:46:59;94456.75;;;3.76;68.85
6389;BME280;3227;42.654;23.360;2023-02-02T04:49:26;94466.78;;;3.73;69.10
6389;BME280;3227;42.654;23.360;2023-02-02T04:51:53;94463.06;;;3.59;69.28
6389;BME280;3227;42.654;23.360;2023-02-02T04:54:19;94455.56;;;3.62;69.44
6389;BME280;3227;42.654;23.360;2023-02-02T04:56:46;94472.81;;;3.77;68.13
6389;BME280;3227;42.654;23.360;2023-02-02T04:59:13;94461.13;;;3.83;67.98
6389;BME280;3227;42.654;23.360;2023-02-02T05:01:41;94445.59;;;3.70;67.96
6389;BME280;3227;42.654;23.360;2023-02-02T05:04:09;94462.03;;;3.87;68.65
6389;BME280;3227;42.654;23.360;2023-02-02T05:06:37;94464.63;;;3.89;68.00
6389;BME280;3227;42.654;23.360;2023-02-02T05:09:03;94464.41;;;3.79;67.88
6389;BME280;3227;42.654;23.360;2023-02-02T05:11:30;94468.69;;;3.82;67.06
6389;BME280;3227;42.654;23.360;2023-02-02T05:13:57;94460.53;;;3.94;67.09
6389;BME280;3227;42.654;23.360;2023-02-02T05:16:24;94465.06;;;4.07;66.33
6389;BME280;3227;42.654;23.360;2023-02-02T05:18:54;94455.09;;;4.14;65.45
6389;BME280;3227;42.654;23.360;2023-02-02T05:21:22;94454.22;;;4.14;65.05
6389;BME280;3227;42.654;23.360;2023-02-02T05:23:49;94451.69;;;4.14;65.13
6389;BME280;3227;42.654;23.360;2023-02-02T05:26:17;94446.88;;;4.25;65.75
6389;BME280;3227;42.654;23.360;2023-02-02T05:28:45;94441.03;;;4.27;65.47
6389;BME280;3227;42.654;23.360;2023-02-02T05:31:12;94432.69;;;4.33;65.70
6389;BME280;3227;42.654;23.360;2023-02-02T05:33:39;94454.41;;;4.21;64.48
6389;BME280;3227;42.654;23.360;2023-02-02T05:36:08;94454.84;;;4.02;65.71
6389;BME280;3227;42.654;23.360;2023-02-02T05:38:35;94455.63;;;3.65;67.19
6389;BME280;3227;42.654;23.360;2023-02-02T05:41:02;94440.16;;;3.22;69.42
6389;BME280;3227;42.654;23.360;2023-02-02T05:43:30;94468.41;;;3.05;70.87
6389;BME280;3227;42.654;23.360;2023-02-02T05:45:58;94463.13;;;2.98;71.80
6389;BME280;3227;42.654;23.360;2023-02-02T05:48:25;94472.59;;;3.05;71.69
6389;BME280;3227;42.654;23.360;2023-02-02T05:50:58;94459.34;;;3.14;71.39
6389;BME280;3227;42.654;23.360;2023-02-02T05:53:28;94475.63;;;3.23;71.25
6389;BME280;3227;42.654;23.360;2023-02-02T05:55:55;94468.91;;;3.24;70.58
6389;BME280;3227;42.654;23.360;2023-02-02T05:58:22;94475.06;;;3.33;70.02
6389;BME280;3227;42.654;23.360;2023-02-02T06:00:49;94421.47;;;2.85;70.88
6389;BME280;3227;42.654;23.360;2023-02-02T06:03:15;94457.50;;;3.08;71.53
6389;BME280;3227;42.654;23.360;2023-02-02T06:05:42;94465.31;;;3.16;71.52
6389;BME280;3227;42.654;23.360;2023-02-02T06:08:09;94473.47;;;3.05;71.76
6389;BME280;3227;42.654;23.360;2023-02-02T06:10:39;94417.09;;;2.50;73.41
6389;BME280;3227;42.654;23.360;2023-02-02T06:13:06;94479.25;;;2.70;74.57
6389;BME280;3227;42.654;23.360;2023-02-02T06:15:33;94470.97;;;2.76;74.43
6389;BME280;3227;42.654;23.360;2023-02-02T06:18:00;94408.41;;;2.70;73.84
6389;BME280;3227;42.654;23.360;2023-02-02T06:20:27;94487.53;;;3.59;71.58
6389;BME280;3227;42.654;23.360;2023-02-02T06:22:54;94491.72;;;3.91;70.25
6389;BME280;3227;42.654;23.360;2023-02-02T06:25:21;94484.25;;;3.97;69.79
6389;BME280;3227;42.654;23.360;2023-02-02T06:27:55;94468.88;;;3.90;68.87
6389;BME280;3227;42.654;23.360;2023-02-02T06:30:22;94515.41;;;4.26;68.14
6389;BME280;3227;42.654;23.360;2023-02-02T06:32:49;94513.88;;;4.34;67.73
6389;BME280;3227;42.654;23.360;2023-02-02T06:35:16;94485.56;;;3.81;68.39
6389;BME280;3227;42.654;23.360;2023-02-02T06:37:43;94519.47;;;4.19;68.41
6389;BME280;3227;42.654;23.360;2023-02-02T06:40:11;94475.28;;;4.10;67.62
6389;BME280;3227;42.654;23.360;2023-02-02T06:42:38;94519.13;;;4.42;67.47
6389;BME280;3227;42.654;23.360;2023-02-02T06:45:08;94538.13;;;4.23;67.45
6389;BME280;3227;42.654;23.360;2023-02-02T06:47:35;94523.28;;;4.02;68.98
6389;BME280;3227;42.654;23.360;2023-02-02T06:50:02;94511.09;;;4.24;66.00
6389;BME280;3227;42.654;23.360;2023-02-02T06:52:29;94505.03;;;4.17;67.41
6389;BME280;3227;42.654;23.360;2023-02-02T06:54:56;94519.13;;;4.06;67.46
6389;BME280;3227;42.654;23.360;2023-02-02T06:57:22;94521.28;;;4.25;67.80
6389;BME280;3227;42.654;23.360;2023-02-02T06:59:49;94527.31;;;3.94;68.79
6389;BME280;3227;42.654;23.360;2023-02-02T07:02:18;94536.63;;;3.97;68.52
6389;BME280;3227;42.654;23.360;2023-02-02T07:04:45;94530.09;;;3.70;69.34
6389;BME280;3227;42.654;23.360;2023-02-02T07:07:11;94537.25;;;3.55;71.20
6389;BME280;3227;42.654;23.360;2023-02-02T07:09:38;94536.34;;;3.85;71.10
6389;BME280;3227;42.654;23.360;2023-02-02T07:12:05;94527.72;;;4.11;69.67
6389;BME280;3227;42.654;23.360;2023-02-02T07:14:32;94527.03;;;4.18;70.95
6389;BME280;3227;42.654;23.360;2023-02-02T07:16:59;94521.19;;;4.22;68.38
6389;BME280;3227;42.654;23.360;2023-02-02T07:19:27;94532.34;;;4.27;67.71
6389;BME280;3227;42.654;23.360;2023-02-02T07:21:54;94535.03;;;4.35;67.18
6389;BME280;3227;42.654;23.360;2023-02-02T07:24:21;94544.19;;;4.30;67.71
6389;BME280;3227;42.654;23.360;2023-02-02T07:26:48;94537.44;;;4.30;68.23
6389;BME280;3227;42.654;23.360;2023-02-02T07:29:14;94546.09;;;4.04;69.76
6389;BME280;3227;42.654;23.360;2023-02-02T07:31:41;94539.31;;;4.01;69.18
6389;BME280;3227;42.654;23.360;2023-02-02T07:34:08;94534.34;;;4.06;69.58
6389;BME280;3227;42.654;23.360;2023-02-02T07:36:36;94548.72;;;4.07;70.18
6389;BME280;3227;42.654;23.360;2023-02-02T07:39:04;94552.53;;;4.24;70.13
6389;BME280;3227;42.654;23.360;2023-02-02T07:41:34;94549.84;;;4.52;68.65
6389;BME280;3227;42.654;23.360;2023-02-02T07:44:02;94476.78;;;4.02;67.66
6389;BME280;3227;42.654;23.360;2023-02-02T07:46:29;94490.94;;;4.30;67.96
6389;BME280;3227;42.654;23.360;2023-02-02T07:48:56;94497.38;;;4.51;67.57
6389;BME280;3227;42.654;23.360;2023-02-02T07:51:24;94531.41;;;5.00;66.22
6389;BME280;3227;42.654;23.360;2023-02-02T07:53:53;94473.31;;;4.73;65.56
6389;BME280;3227;42.654;23.360;2023-02-02T07:56:24;94484.81;;;4.98;64.40
6389;BME280;3227;42.654;23.360;2023-02-02T07:58:52;94502.47;;;5.35;63.35
6389;BME280;3227;42.654;23.360;2023-02-02T08:01:19;94480.59;;;5.44;61.98
6389;BME280;3227;42.654;23.360;2023-02-02T08:03:47;94503.38;;;5.86;61.88
6389;BME280;3227;42.654;23.360;2023-02-02T08:06:17;94506.69;;;6.30;60.58
6389;BME280;3227;42.654;23.360;2023-02-02T08:08:45;94503.84;;;6.67;59.57
6389;BME280;3227;42.654;23.360;2023-02-02T08:11:14;94490.84;;;7.11;57.82
6389;BME280;3227;42.654;23.360;2023-02-02T08:13:42;94496.13;;;7.24;56.69
6389;BME280;3227;42.654;23.360;2023-02-02T08:16:10;94493.31;;;7.05;56.48
6389;BME280;3227;42.654;23.360;2023-02-02T08:18:37;94487.75;;;6.68;58.20
6389;BME280;3227;42.654;23.360;2023-02-02T08:21:05;94488.06;;;6.31;59.90
6389;BME280;3227;42.654;23.360;2023-02-02T08:23:34;94498.72;;;6.08;60.80
6389;BME280;3227;42.654;23.360;2023-02-02T08:26:05;94493.84;;;5.72;62.38
6389;BME280;3227;42.654;23.360;2023-02-02T08:28:34;94485.84;;;5.51;64.17
6389;BME280;3227;42.654;23.360;2023-02-02T08:31:03;94440.91;;;5.04;65.04
6389;BME280;3227;42.654;23.360;2023-02-02T08:33:30;94488.19;;;5.41;65.30
6389;BME280;3227;42.654;23.360;2023-02-02T08:35:57;94472.28;;;5.51;64.46
6389;BME280;3227;42.654;23.360;2023-02-02T08:38:24;94469.06;;;5.61;64.14
6389;BME280;3227;42.654;23.360;2023-02-02T08:40:51;94469.25;;;5.71;63.25
6389;BME280;3227;42.654;23.360;2023-02-02T08:43:17;94472.69;;;5.73;63.09
6389;BME280;3227;42.654;23.360;2023-02-02T08:45:46;94462.53;;;5.75;63.03
6389;BME280;3227;42.654;23.360;2023-02-02T08:48:13;94462.84;;;5.93;61.68
6389;BME280;3227;42.654;23.360;2023-02-02T08:50:41;94467.59;;;6.23;61.29
6389;BME280;3227;42.654;23.360;2023-02-02T08:53:08;94438.94;;;6.36;60.46
6389;BME280;3227;42.654;23.360;2023-02-02T08:55:34;94454.75;;;6.76;58.76
6389;BME280;3227;42.654;23.360;2023-02-02T08:58:01;94457.50;;;6.93;58.17
6389;BME280;3227;42.654;23.360;2023-02-02T09:00:29;94464.28;;;6.91;58.55
6389;BME280;3227;42.654;23.360;2023-02-02T09:02:57;94461.81;;;6.97;58.32
6389;BME280;3227;42.654;23.360;2023-02-02T09:05:24;94469.09;;;6.69;58.72
6389;BME280;3227;42.654;23.360;2023-02-02T09:07:51;94474.88;;;6.58;59.84
6389;BME280;3227;42.654;23.360;2023-02-02T09:10:18;94436.53;;;6.47;59.77
6389;BME280;3227;42.654;23.360;2023-02-02T09:12:47;94467.53;;;6.80;59.50
6389;BME280;3227;42.654;23.360;2023-02-02T09:15:14;94444.59;;;6.79;59.08
6389;BME280;3227;42.654;23.360;2023-02-02T09:17:40;94452.31;;;6.83;58.85
6389;BME280;3227;42.654;23.360;2023-02-02T09:20:10;94452.28;;;6.80;59.32
6389;BME280;3227;42.654;23.360;2023-02-02T09:22:36;94442.97;;;6.84;58.72
6389;BME280;3227;42.654;23.360;2023-02-02T09:25:04;94445.66;;;6.96;58.74
6389;BME280;3227;42.654;23.360;2023-02-02T09:27:36;94388.09;;;6.42;59.48
6389;BME280;3227;42.654;23.360;2023-02-02T09:30:03;94451.31;;;6.72;59.49
6389;BME280;3227;42.654;23.360;2023-02-02T09:32:30;94449.56;;;6.70;58.99
6389;BME280;3227;42.654;23.360;2023-02-02T09:34:56;94449.28;;;6.47;59.53
6389;BME280;3227;42.654;23.360;2023-02-02T09:37:26;94443.16;;;6.36;59.45
6389;BME280;3227;42.654;23.360;2023-02-02T09:39:53;94430.84;;;6.65;59.88
6389;BME280;3227;42.654;23.360;2023-02-02T09:42:47;94398.84;;;6.85;58.21
6389;BME280;3227;42.654;23.360;2023-02-02T09:45:24;94425.84;;;7.46;58.04
6389;BME280;3227;42.654;23.360;2023-02-02T09:47:53;94367.94;;;7.32;57.33
6389;BME280;3227;42.654;23.360;2023-02-02T09:50:32;94424.56;;;7.94;56.00
6389;BME280;3227;42.654;23.360;2023-02-02T09:53:11;94425.50;;;8.03;55.40
6389;BME280;3227;42.654;23.360;2023-02-02T09:55:47;94428.81;;;7.90;54.92
6389;BME280;3227;42.654;23.360;2023-02-02T09:58:19;94417.75;;;7.90;54.79
6389;BME280;3227;42.654;23.360;2023-02-02T10:00:52;94399.66;;;7.64;53.07
6389;BME280;3227;42.654;23.360;2023-02-02T10:03:25;94404.63;;;7.49;53.83
6389;BME280;3227;42.654;23.360;2023-02-02T10:05:56;94412.50;;;7.75;53.86
6389;BME280;3227;42.654;23.360;2023-02-02T10:08:31;94386.19;;;7.79;55.31
6389;BME280;3227;42.654;23.360;2023-02-02T10:11:04;94360.66;;;7.73;56.22
6389;BME280;3227;42.654;23.360;2023-02-02T10:13:37;94404.25;;;8.05;54.86
6389;BME280;3227;42.654;23.360;2023-02-02T10:16:12;94393.25;;;8.16;55.45
6389;BME280;3227;42.654;23.360;2023-02-02T10:18:45;94391.72;;;8.36;54.65
6389;BME280;3227;42.654;23.360;2023-02-02T10:21:25;94379.03;;;8.50;53.85
6389;BME280;3227;42.654;23.360;2023-02-02T10:23:54;94394.50;;;8.79;53.07
6389;BME280;3227;42.654;23.360;2023-02-02T10:26:26;94379.16;;;8.82;51.49
6389;BME280;3227;42.654;23.360;2023-02-02T10:29:06;94379.28;;;9.03;49.01
6389;BME280;3227;42.654;23.360;2023-02-02T10:31:41;94370.75;;;8.97;50.20
6389;BME280;3227;42.654;23.360;2023-02-02T10:34:15;94369.09;;;9.25;50.28
6389;BME280;3227;42.654;23.360;2023-02-02T10:36:54;94374.28;;;9.55;49.05
6389;BME280;3227;42.654;23.360;2023-02-02T10:39:30;94369.16;;;9.67;48.03
6389;BME280;3227;42.654;23.360;2023-02-02T10:42:08;94326.53;;;9.68;46.86
6389;BME280;3227;42.654;23.360;2023-02-02T10:44:44;94354.66;;;9.98;45.31
6389;BME280;3227;42.654;23.360;2023-02-02T10:47:18;94338.47;;;9.84;45.28
6389;BME280;3227;42.654;23.360;2023-02-02T10:49:54;94338.47;;;9.85;44.20
6389;BME280;3227;42.654;23.360;2023-02-02T10:52:30;94333.34;;;9.85;43.86
6389;BME280;3227;42.654;23.360;2023-02-02T10:55:00;94331.63;;;9.92;43.87
6389;BME280;3227;42.654;23.360;2023-02-02T10:57:47;94316.25;;;10.00;42.99
6389;BME280;3227;42.654;23.360;2023-02-02T11:00:20;94277.03;;;9.96;42.77
6389;BME280;3227;42.654;23.360;2023-02-02T11:02:49;94305.19;;;10.19;42.11
6389;BME280;3227;42.654;23.360;2023-02-02T11:05:19;94298.31;;;10.28;42.29
6389;BME280;3227;42.654;23.360;2023-02-02T11:08:15;94270.19;;;10.21;41.24
6389;BME280;3227;42.654;23.360;2023-02-02T11:10:45;94218.13;;;10.07;42.01
6389;BME280;3227;42.654;23.360;2023-02-02T11:13:24;94287.94;;;10.66;40.71
6389;BME280;3227;42.654;23.360;2023-02-02T11:16:18;94299.88;;;10.67;40.24
6389;BME280;3227;42.654;23.360;2023-02-02T11:18:45;94300.66;;;10.82;40.59
6389;BME280;3227;42.654;23.360;2023-02-02T11:21:17;94294.75;;;10.64;40.47
6389;BME280;3227;42.654;23.360;2023-02-02T11:23:53;94250.44;;;10.47;41.72
6389;BME280;3227;42.654;23.360;2023-02-02T11:26:26;94292.03;;;10.98;39.81
6389;BME280;3227;42.654;23.360;2023-02-02T11:29:12;94283.59;;;10.81;39.56
6389;BME280;3227;42.654;23.360;2023-02-02T11:31:40;94275.81;;;10.97;39.91
6389;BME280;3227;42.654;23.360;2023-02-02T11:34:09;94268.13;;;10.99;39.02
6389;BME280;3227;42.654;23.360;2023-02-02T11:36:39;94269.03;;;10.89;40.05
6389;BME280;3227;42.654;23.360;2023-02-02T11:39:14;94258.84;;;10.75;39.10
6389;BME280;3227;42.654;23.360;2023-02-02T11:41:43;94253.69;;;10.86;39.51
6389;BME280;3227;42.654;23.360;2023-02-02T11:44:19;94260.47;;;10.90;38.42
6389;BME280;3227;42.654;23.360;2023-02-02T11:46:49;94252.81;;;10.87;39.31
6389;BME280;3227;42.654;23.360;2023-02-02T11:49:18;94209.41;;;10.55;38.64
6389;BME280;3227;42.654;23.360;2023-02-02T11:51:55;94209.31;;;10.72;38.47
6389;BME280;3227;42.654;23.360;2023-02-02T11:54:26;94245.94;;;10.89;38.01
6389;BME280;3227;42.654;23.360;2023-02-02T11:56:58;94129.25;;;10.39;38.42
6389;BME280;3227;42.654;23.360;2023-02-02T11:59:28;94238.03;;;11.21;38.63
6389;BME280;3227;42.654;23.360;2023-02-02T12:02:25;94220.94;;;11.24;38.22
6389;BME280;3227;42.654;23.360;2023-02-02T12:04:54;94195.47;;;10.97;37.64
6389;BME280;3227;42.654;23.360;2023-02-02T12:07:24;94238.25;;;10.87;37.61
6389;BME280;3227;42.654;23.360;2023-02-02T12:09:52;94235.59;;;11.07;38.01
6389;BME280;3227;42.654;23.360;2023-02-02T12:12:32;94245.72;;;11.22;38.98
6389;BME280;3227;42.654;23.360;2023-02-02T12:15:10;94238.81;;;11.35;37.67
6389;BME280;3227;42.654;23.360;2023-02-02T12:17:42;94227.03;;;11.11;37.47
6389;BME280;3227;42.654;23.360;2023-02-02T12:20:19;94237.97;;;11.33;38.22
6389;BME280;3227;42.654;23.360;2023-02-02T12:23:13;94226.00;;;11.32;38.23
6389;BME280;3227;42.654;23.360;2023-02-02T12:26:00;94236.38;;;11.14;39.18
6389;BME280;3227;42.654;23.360;2023-02-02T12:28:41;94232.41;;;10.65;39.38
6389;BME280;3227;42.654;23.360;2023-02-02T12:31:18;94239.34;;;10.51;40.02
6389;BME280;3227;42.654;23.360;2023-02-02T12:33:53;94251.25;;;10.58;40.71
6389;BME280;3227;42.654;23.360;2023-02-02T12:36:37;94234.16;;;10.60;40.39
6389;BME280;3227;42.654;23.360;2023-02-02T12:39:20;94244.41;;;10.57;39.05
6389;BME280;3227;42.654;23.360;2023-02-02T12:42:07;94245.38;;;10.37;39.70
6389;BME280;3227;42.654;23.360;2023-02-02T12:44:45;94240.25;;;10.32;38.90
6389;BME280;3227;42.654;23.360;2023-02-02T12:47:21;94249.66;;;10.33;39.16
6389;BME280;3227;42.654;23.360;2023-02-02T12:50:13;94242.84;;;10.15;39.08
6389;BME280;3227;42.654;23.360;2023-02-02T12:53:01;94243.72;;;10.07;40.17
6389;BME280;3227;42.654;23.360;2023-02-02T12:55:40;94249.72;;;10.00;39.70
6389;BME280;3227;42.654;23.360;2023-02-02T12:58:27;94242.91;;;9.96;40.26
6389;BME280;3227;42.654;23.360;2023-02-02T13:01:08;94188.41;;;9.62;41.45
6389;BME280;3227;42.654;23.360;2023-02-02T13:03:55;94235.22;;;10.03;40.51
6389;BME280;3227;42.654;23.360;2023-02-02T13:06:50;94207.94;;;9.88;41.32
6389;BME280;3227;42.654;23.360;2023-02-02T13:09:23;94241.13;;;10.14;40.73
6389;BME280;3227;42.654;23.360;2023-02-02T13:11:55;94236.88;;;10.06;39.85
6389;BME280;3227;42.654;23.360;2023-02-02T13:14:29;94247.13;;;10.10;40.77
6389;BME280;3227;42.654;23.360;2023-02-02T13:17:04;94223.25;;;10.08;40.42
6389;BME280;3227;42.654;23.360;2023-02-02T13:19:35;94212.16;;;10.08;39.92
6389;BME280;3227;42.654;23.360;2023-02-02T13:22:11;94244.53;;;10.35;40.66
6389;BME280;3227;42.654;23.360;2023-02-02T13:24:43;94238.50;;;10.40;40.06
6389;BME280;3227;42.654;23.360;2023-02-02T13:27:14;94222.34;;;10.24;40.12
6389;BME280;3227;42.654;23.360;2023-02-02T13:29:44;94238.50;;;10.39;39.94
6389;BME280;3227;42.654;23.360;2023-02-02T13:32:20;94242.81;;;10.35;39.60
6389;BME280;3227;42.654;23.360;2023-02-02T13:34:52;94243.66;;;10.31;41.21
6389;BME280;3227;42.654;23.360;2023-02-02T13:37:26;94240.25;;;10.30;40.02
6389;BME280;3227;42.654;23.360;2023-02-02T13:39:59;94227.47;;;10.26;41.92
6389;BME280;3227;42.654;23.360;2023-02-02T13:42:34;94236.84;;;10.32;41.29
6389;BME280;3227;42.654;23.360;2023-02-02T13:45:18;94241.13;;;10.28;39.81
6389;BME280;3227;42.654;23.360;2023-02-02T13:47:54;94218.13;;;10.17;39.16